CheckWX is a tool to help pilots better visualize weather data.  It is not intended as a substitute for an official pre-flight weather briefing.

01:07:22 UTC

CYXY METAR
Whitehorse / Erik Nielsen International Airport
Whitehorse, Canada
Current

1 hour ago

CYXY 240000Z 00000KT 40SM SKC M14/M21 A3046 RMK SLP396
Observed
Feb-24 @ 00:00 UTC
Visibility
40 SM
Flight Rules
VFR
Cloud Levels
  • Clear skies
Temperature
-14°C / 7°F
Dewpoint
-21°C / -6°F
Humidity
56%
Altimeter
30.46" Hg
Pressure
1039.6 hPa
Previous

2 hours ago

CYXY 232300Z VRB02KT 40SM SKC M15/M21 A3047 RMK SLP399
Observed
Feb-23 @ 23:00 UTC
Wind
  • Variable at 2 KTS
Visibility
40 SM
Flight Rules
VFR
Cloud Levels
  • Clear skies
Temperature
-15°C / 5°F
Dewpoint
-21°C / -6°F
Humidity
60%
Altimeter
30.47" Hg
Pressure
1039.9 hPa
Previous

3 hours ago

CYXY 232200Z 00000KT 40SM SKC M17/M22 A3049 RMK SLP406
Observed
Feb-23 @ 22:00 UTC
Visibility
40 SM
Flight Rules
VFR
Cloud Levels
  • Clear skies
Temperature
-17°C / 1°F
Dewpoint
-22°C / -8°F
Humidity
65%
Altimeter
30.49" Hg
Pressure
1040.6 hPa